sensor_id;sensor_type;location;lat;lon;timestamp;temperature;humidity
27559;DHT22;15002;52.028;5.670;2022-08-03T00:01:36;24.30;96.70
27559;DHT22;15002;52.028;5.670;2022-08-03T00:04:03;24.20;96.80
27559;DHT22;15002;52.028;5.670;2022-08-03T00:06:29;24.10;97.00
27559;DHT22;15002;52.028;5.670;2022-08-03T00:08:54;24.00;97.30
27559;DHT22;15002;52.028;5.670;2022-08-03T00:11:29;24.00;97.40
27559;DHT22;15002;52.028;5.670;2022-08-03T00:13:54;24.00;97.40
27559;DHT22;15002;52.028;5.670;2022-08-03T00:16:20;24.00;97.20
27559;DHT22;15002;52.028;5.670;2022-08-03T00:18:46;24.00;97.30
27559;DHT22;15002;52.028;5.670;2022-08-03T00:21:11;23.90;97.40
27559;DHT22;15002;52.028;5.670;2022-08-03T00:23:37;23.90;97.60
27559;DHT22;15002;52.028;5.670;2022-08-03T00:26:03;23.80;97.60
27559;DHT22;15002;52.028;5.670;2022-08-03T00:28:29;23.80;97.70
27559;DHT22;15002;52.028;5.670;2022-08-03T00:30:54;23.80;97.60
27559;DHT22;15002;52.028;5.670;2022-08-03T00:33:20;23.70;97.80
27559;DHT22;15002;52.028;5.670;2022-08-03T00:35:46;23.70;98.00
27559;DHT22;15002;52.028;5.670;2022-08-03T00:38:12;23.60;98.10
27559;DHT22;15002;52.028;5.670;2022-08-03T00:40:39;23.60;98.10
27559;DHT22;15002;52.028;5.670;2022-08-03T00:43:07;23.60;98.00
27559;DHT22;15002;52.028;5.670;2022-08-03T00:45:38;23.60;98.10
27559;DHT22;15002;52.028;5.670;2022-08-03T00:48:06;23.50;98.20
27559;DHT22;15002;52.028;5.670;2022-08-03T00:50:35;23.50;98.40
27559;DHT22;15002;52.028;5.670;2022-08-03T00:53:04;23.40;98.70
27559;DHT22;15002;52.028;5.670;2022-08-03T00:55:30;23.20;99.00
27559;DHT22;15002;52.028;5.670;2022-08-03T00:57:56;23.20;99.10
27559;DHT22;15002;52.028;5.670;2022-08-03T01:00:24;23.20;99.10
27559;DHT22;15002;52.028;5.670;2022-08-03T01:02:51;23.20;99.10
27559;DHT22;15002;52.028;5.670;2022-08-03T01:05:18;23.30;99.20
27559;DHT22;15002;52.028;5.670;2022-08-03T01:13:21;23.50;98.80
27559;DHT22;15002;52.028;5.670;2022-08-03T01:16:12;23.50;98.80
27559;DHT22;15002;52.028;5.670;2022-08-03T01:22:27;23.30;98.90
27559;DHT22;15002;52.028;5.670;2022-08-03T01:24:57;23.20;99.10
27559;DHT22;15002;52.028;5.670;2022-08-03T01:30:30;23.20;99.50
27559;DHT22;15002;52.028;5.670;2022-08-03T01:33:03;23.20;99.40
27559;DHT22;15002;52.028;5.670;2022-08-03T01:35:35;23.20;99.50
27559;DHT22;15002;52.028;5.670;2022-08-03T01:38:12;23.20;99.70
27559;DHT22;15002;52.028;5.670;2022-08-03T01:40:39;23.30;99.50
27559;DHT22;15002;52.028;5.670;2022-08-03T01:43:08;23.30;99.50
27559;DHT22;15002;52.028;5.670;2022-08-03T01:45:35;23.30;99.60
27559;DHT22;15002;52.028;5.670;2022-08-03T01:48:02;23.30;99.50
27559;DHT22;15002;52.028;5.670;2022-08-03T01:50:30;23.20;99.60
27559;DHT22;15002;52.028;5.670;2022-08-03T01:52:57;23.10;99.80
27559;DHT22;15002;52.028;5.670;2022-08-03T01:55:24;23.20;99.90
27559;DHT22;15002;52.028;5.670;2022-08-03T01:57:53;23.20;99.90
27559;DHT22;15002;52.028;5.670;2022-08-03T02:00:19;23.20;99.80
27559;DHT22;15002;52.028;5.670;2022-08-03T02:02:48;23.10;99.90
27559;DHT22;15002;52.028;5.670;2022-08-03T02:05:15;23.10;99.90
27559;DHT22;15002;52.028;5.670;2022-08-03T02:07:44;23.10;99.90
27559;DHT22;15002;52.028;5.670;2022-08-03T02:10:13;23.10;99.90
27559;DHT22;15002;52.028;5.670;2022-08-03T02:12:43;23.10;99.90
27559;DHT22;15002;52.028;5.670;2022-08-03T02:15:11;23.10;99.90
27559;DHT22;15002;52.028;5.670;2022-08-03T02:17:37;23.20;99.90
27559;DHT22;15002;52.028;5.670;2022-08-03T02:20:04;23.10;99.90
27559;DHT22;15002;52.028;5.670;2022-08-03T02:22:32;23.10;99.90
27559;DHT22;15002;52.028;5.670;2022-08-03T02:24:58;23.10;99.90
27559;DHT22;15002;52.028;5.670;2022-08-03T02:27:25;23.10;99.90
27559;DHT22;15002;52.028;5.670;2022-08-03T02:30:02;23.00;99.90
27559;DHT22;15002;52.028;5.670;2022-08-03T02:32:33;23.10;99.90
27559;DHT22;15002;52.028;5.670;2022-08-03T02:35:01;23.10;99.90
27559;DHT22;15002;52.028;5.670;2022-08-03T02:37:31;23.10;99.90
27559;DHT22;15002;52.028;5.670;2022-08-03T02:40:01;23.10;99.90
27559;DHT22;15002;52.028;5.670;2022-08-03T02:42:28;22.90;99.90
27559;DHT22;15002;52.028;5.670;2022-08-03T02:44:58;22.90;99.90
27559;DHT22;15002;52.028;5.670;2022-08-03T02:47:27;22.80;99.90
27559;DHT22;15002;52.028;5.670;2022-08-03T02:49:57;22.80;99.90
27559;DHT22;15002;52.028;5.670;2022-08-03T02:52:24;22.90;99.90
27559;DHT22;15002;52.028;5.670;2022-08-03T02:54:53;22.90;99.90
27559;DHT22;15002;52.028;5.670;2022-08-03T02:57:20;22.90;99.90
27559;DHT22;15002;52.028;5.670;2022-08-03T02:59:47;22.90;99.90
27559;DHT22;15002;52.028;5.670;2022-08-03T03:02:14;22.90;99.90
27559;DHT22;15002;52.028;5.670;2022-08-03T03:04:42;22.90;99.90
27559;DHT22;15002;52.028;5.670;2022-08-03T03:07:11;22.90;99.90
27559;DHT22;15002;52.028;5.670;2022-08-03T03:09:37;22.90;99.90
27559;DHT22;15002;52.028;5.670;2022-08-03T03:12:03;22.80;99.90
27559;DHT22;15002;52.028;5.670;2022-08-03T03:14:30;22.80;99.90
27559;DHT22;15002;52.028;5.670;2022-08-03T03:16:56;22.70;99.90
27559;DHT22;15002;52.028;5.670;2022-08-03T03:19:23;22.70;99.90
27559;DHT22;15002;52.028;5.670;2022-08-03T03:21:51;22.60;99.90
27559;DHT22;15002;52.028;5.670;2022-08-03T03:24:17;22.60;99.90
27559;DHT22;15002;52.028;5.670;2022-08-03T03:26:43;22.70;99.90
27559;DHT22;15002;52.028;5.670;2022-08-03T03:29:09;22.60;99.90
27559;DHT22;15002;52.028;5.670;2022-08-03T03:31:35;22.60;99.90
27559;DHT22;15002;52.028;5.670;2022-08-03T03:34:01;22.60;99.90
27559;DHT22;15002;52.028;5.670;2022-08-03T03:36:28;22.60;99.90
27559;DHT22;15002;52.028;5.670;2022-08-03T03:38:53;22.50;99.90
27559;DHT22;15002;52.028;5.670;2022-08-03T03:41:19;22.60;99.90
27559;DHT22;15002;52.028;5.670;2022-08-03T03:43:45;22.60;99.90
27559;DHT22;15002;52.028;5.670;2022-08-03T03:46:11;22.60;99.90
27559;DHT22;15002;52.028;5.670;2022-08-03T03:48:38;22.60;99.90
27559;DHT22;15002;52.028;5.670;2022-08-03T03:51:04;22.60;99.90
27559;DHT22;15002;52.028;5.670;2022-08-03T03:53:30;22.50;99.90
27559;DHT22;15002;52.028;5.670;2022-08-03T03:55:55;22.60;99.90
27559;DHT22;15002;52.028;5.670;2022-08-03T03:58:21;22.50;99.90
27559;DHT22;15002;52.028;5.670;2022-08-03T04:00:47;22.50;99.90
27559;DHT22;15002;52.028;5.670;2022-08-03T04:03:12;22.50;99.90
27559;DHT22;15002;52.028;5.670;2022-08-03T04:05:38;22.40;99.90
27559;DHT22;15002;52.028;5.670;2022-08-03T04:08:22;22.50;99.90
27559;DHT22;15002;52.028;5.670;2022-08-03T04:11:13;22.50;99.90
27559;DHT22;15002;52.028;5.670;2022-08-03T04:14:02;22.50;99.90
27559;DHT22;15002;52.028;5.670;2022-08-03T04:16:35;22.50;99.90
27559;DHT22;15002;52.028;5.670;2022-08-03T04:19:04;22.50;99.90
27559;DHT22;15002;52.028;5.670;2022-08-03T04:21:34;22.50;99.90
27559;DHT22;15002;52.028;5.670;2022-08-03T04:24:04;22.50;99.90
27559;DHT22;15002;52.028;5.670;2022-08-03T04:26:33;22.60;99.90
27559;DHT22;15002;52.028;5.670;2022-08-03T04:29:02;22.60;99.90
27559;DHT22;15002;52.028;5.670;2022-08-03T04:31:29;22.70;99.90
27559;DHT22;15002;52.028;5.670;2022-08-03T04:33:55;22.80;99.90
27559;DHT22;15002;52.028;5.670;2022-08-03T04:36:25;22.70;99.90
27559;DHT22;15002;52.028;5.670;2022-08-03T04:39:06;22.70;99.90
27559;DHT22;15002;52.028;5.670;2022-08-03T04:41:33;22.70;99.90
27559;DHT22;15002;52.028;5.670;2022-08-03T04:44:00;22.70;99.90
27559;DHT22;15002;52.028;5.670;2022-08-03T04:46:30;22.80;99.90
27559;DHT22;15002;52.028;5.670;2022-08-03T04:48:57;22.90;99.90
27559;DHT22;15002;52.028;5.670;2022-08-03T04:51:23;23.00;99.90
27559;DHT22;15002;52.028;5.670;2022-08-03T04:53:49;23.00;99.90
27559;DHT22;15002;52.028;5.670;2022-08-03T04:56:15;23.20;99.90
27559;DHT22;15002;52.028;5.670;2022-08-03T04:58:40;23.30;99.90
27559;DHT22;15002;52.028;5.670;2022-08-03T05:01:06;23.40;99.90
27559;DHT22;15002;52.028;5.670;2022-08-03T05:03:32;23.50;99.90
27559;DHT22;15002;52.028;5.670;2022-08-03T05:05:58;23.60;99.80
27559;DHT22;15002;52.028;5.670;2022-08-03T05:08:23;23.60;99.70
27559;DHT22;15002;52.028;5.670;2022-08-03T05:10:49;23.60;99.60
27559;DHT22;15002;52.028;5.670;2022-08-03T05:13:15;23.70;99.50
27559;DHT22;15002;52.028;5.670;2022-08-03T05:15:40;23.70;99.60
27559;DHT22;15002;52.028;5.670;2022-08-03T05:18:06;23.80;99.40
27559;DHT22;15002;52.028;5.670;2022-08-03T05:20:32;23.80;99.50
27559;DHT22;15002;52.028;5.670;2022-08-03T05:22:57;23.80;99.30
27559;DHT22;15002;52.028;5.670;2022-08-03T05:25:26;23.70;99.40
27559;DHT22;15002;52.028;5.670;2022-08-03T05:27:52;23.70;99.40
27559;DHT22;15002;52.028;5.670;2022-08-03T05:30:18;23.70;99.40
27559;DHT22;15002;52.028;5.670;2022-08-03T05:32:44;23.70;99.50
27559;DHT22;15002;52.028;5.670;2022-08-03T05:35:09;23.70;99.50
27559;DHT22;15002;52.028;5.670;2022-08-03T05:37:35;23.60;99.50
27559;DHT22;15002;52.028;5.670;2022-08-03T05:40:01;23.70;99.30
27559;DHT22;15002;52.028;5.670;2022-08-03T05:42:26;23.80;99.20
27559;DHT22;15002;52.028;5.670;2022-08-03T05:44:52;23.80;99.10
27559;DHT22;15002;52.028;5.670;2022-08-03T05:47:18;24.00;99.10
27559;DHT22;15002;52.028;5.670;2022-08-03T05:49:43;24.20;98.80
27559;DHT22;15002;52.028;5.670;2022-08-03T05:52:09;24.30;98.50
27559;DHT22;15002;52.028;5.670;2022-08-03T05:54:35;24.20;98.50
27559;DHT22;15002;52.028;5.670;2022-08-03T05:57:00;24.20;98.70
27559;DHT22;15002;52.028;5.670;2022-08-03T05:59:26;24.40;98.60
27559;DHT22;15002;52.028;5.670;2022-08-03T06:01:52;24.30;98.40
27559;DHT22;15002;52.028;5.670;2022-08-03T06:04:18;24.20;98.80
27559;DHT22;15002;52.028;5.670;2022-08-03T06:06:44;24.20;99.00
27559;DHT22;15002;52.028;5.670;2022-08-03T06:09:09;24.40;98.70
27559;DHT22;15002;52.028;5.670;2022-08-03T06:11:36;24.30;98.40
27559;DHT22;15002;52.028;5.670;2022-08-03T06:14:02;24.30;98.80
27559;DHT22;15002;52.028;5.670;2022-08-03T06:16:27;24.40;98.50
27559;DHT22;15002;52.028;5.670;2022-08-03T06:18:53;24.60;98.30
27559;DHT22;15002;52.028;5.670;2022-08-03T06:21:19;24.50;98.10
27559;DHT22;15002;52.028;5.670;2022-08-03T06:23:45;24.60;98.00
27559;DHT22;15002;52.028;5.670;2022-08-03T06:26:12;24.50;98.10
27559;DHT22;15002;52.028;5.670;2022-08-03T06:28:38;24.50;98.20
27559;DHT22;15002;52.028;5.670;2022-08-03T06:31:03;24.60;97.80
27559;DHT22;15002;52.028;5.670;2022-08-03T06:33:29;24.60;98.00
27559;DHT22;15002;52.028;5.670;2022-08-03T06:35:55;24.60;97.80
27559;DHT22;15002;52.028;5.670;2022-08-03T06:38:20;24.70;97.70
27559;DHT22;15002;52.028;5.670;2022-08-03T06:40:46;24.90;97.30
27559;DHT22;15002;52.028;5.670;2022-08-03T06:43:12;25.20;96.90
27559;DHT22;15002;52.028;5.670;2022-08-03T06:45:40;25.00;97.10
27559;DHT22;15002;52.028;5.670;2022-08-03T06:48:08;25.30;96.80
27559;DHT22;15002;52.028;5.670;2022-08-03T06:50:35;25.60;96.40
27559;DHT22;15002;52.028;5.670;2022-08-03T06:53:02;26.00;95.90
27559;DHT22;15002;52.028;5.670;2022-08-03T06:55:29;26.50;95.00
27559;DHT22;15002;52.028;5.670;2022-08-03T06:57:55;26.90;94.60
27559;DHT22;15002;52.028;5.670;2022-08-03T07:00:20;27.10;93.80
27559;DHT22;15002;52.028;5.670;2022-08-03T07:02:46;27.50;93.40
27559;DHT22;15002;52.028;5.670;2022-08-03T07:05:13;27.80;92.80
27559;DHT22;15002;52.028;5.670;2022-08-03T07:07:39;28.20;91.90
27559;DHT22;15002;52.028;5.670;2022-08-03T07:10:06;28.70;91.30
27559;DHT22;15002;52.028;5.670;2022-08-03T07:12:33;29.00;91.00
27559;DHT22;15002;52.028;5.670;2022-08-03T07:14:59;29.00;90.90
27559;DHT22;15002;52.028;5.670;2022-08-03T07:17:26;29.30;90.40
27559;DHT22;15002;52.028;5.670;2022-08-03T07:19:52;29.30;90.00
27559;DHT22;15002;52.028;5.670;2022-08-03T07:22:17;29.70;89.10
27559;DHT22;15002;52.028;5.670;2022-08-03T07:24:43;29.80;89.50
27559;DHT22;15002;52.028;5.670;2022-08-03T07:27:10;30.10;88.60
27559;DHT22;15002;52.028;5.670;2022-08-03T07:29:35;30.30;86.70
27559;DHT22;15002;52.028;5.670;2022-08-03T07:32:02;30.20;85.30
27559;DHT22;15002;52.028;5.670;2022-08-03T07:34:28;30.40;86.10
27559;DHT22;15002;52.028;5.670;2022-08-03T07:36:54;30.30;85.80
27559;DHT22;15002;52.028;5.670;2022-08-03T07:39:20;30.10;86.80
27559;DHT22;15002;52.028;5.670;2022-08-03T07:41:45;30.30;86.10
27559;DHT22;15002;52.028;5.670;2022-08-03T07:44:12;30.40;85.10
27559;DHT22;15002;52.028;5.670;2022-08-03T07:46:37;30.40;85.20
27559;DHT22;15002;52.028;5.670;2022-08-03T07:49:03;30.40;84.20
27559;DHT22;15002;52.028;5.670;2022-08-03T07:51:29;30.50;84.50
27559;DHT22;15002;52.028;5.670;2022-08-03T07:53:55;30.80;84.50
27559;DHT22;15002;52.028;5.670;2022-08-03T07:56:22;31.00;82.80
27559;DHT22;15002;52.028;5.670;2022-08-03T07:58:50;31.20;82.60
27559;DHT22;15002;52.028;5.670;2022-08-03T08:01:16;31.40;81.30
27559;DHT22;15002;52.028;5.670;2022-08-03T08:03:47;31.10;81.00
27559;DHT22;15002;52.028;5.670;2022-08-03T08:06:13;31.10;81.90
27559;DHT22;15002;52.028;5.670;2022-08-03T08:08:39;31.50;82.00
27559;DHT22;15002;52.028;5.670;2022-08-03T08:11:05;31.70;81.20
27559;DHT22;15002;52.028;5.670;2022-08-03T08:13:31;32.00;80.00
27559;DHT22;15002;52.028;5.670;2022-08-03T08:15:56;31.80;79.20
27559;DHT22;15002;52.028;5.670;2022-08-03T08:18:22;31.70;80.70
27559;DHT22;15002;52.028;5.670;2022-08-03T08:20:49;32.00;80.20
27559;DHT22;15002;52.028;5.670;2022-08-03T08:23:15;32.10;79.30
27559;DHT22;15002;52.028;5.670;2022-08-03T08:25:47;32.30;78.80
27559;DHT22;15002;52.028;5.670;2022-08-03T08:28:13;32.10;77.80
27559;DHT22;15002;52.028;5.670;2022-08-03T08:30:38;32.10;79.30
27559;DHT22;15002;52.028;5.670;2022-08-03T08:33:04;32.10;78.40
27559;DHT22;15002;52.028;5.670;2022-08-03T08:35:30;32.10;78.80
27559;DHT22;15002;52.028;5.670;2022-08-03T08:37:55;32.20;78.00
27559;DHT22;15002;52.028;5.670;2022-08-03T08:40:23;32.10;77.50
27559;DHT22;15002;52.028;5.670;2022-08-03T08:42:49;32.00;78.50
27559;DHT22;15002;52.028;5.670;2022-08-03T08:45:15;31.90;78.50
27559;DHT22;15002;52.028;5.670;2022-08-03T08:47:44;31.90;79.50
27559;DHT22;15002;52.028;5.670;2022-08-03T08:50:11;32.00;79.60
27559;DHT22;15002;52.028;5.670;2022-08-03T08:52:39;32.00;79.30
27559;DHT22;15002;52.028;5.670;2022-08-03T08:55:08;32.10;78.40
27559;DHT22;15002;52.028;5.670;2022-08-03T08:57:44;32.10;79.00
27559;DHT22;15002;52.028;5.670;2022-08-03T09:00:11;31.90;78.30
27559;DHT22;15002;52.028;5.670;2022-08-03T09:02:39;31.90;78.60
27559;DHT22;15002;52.028;5.670;2022-08-03T09:05:12;31.90;77.70
27559;DHT22;15002;52.028;5.670;2022-08-03T09:07:39;31.80;78.50
27559;DHT22;15002;52.028;5.670;2022-08-03T09:10:06;31.80;78.00
27559;DHT22;15002;52.028;5.670;2022-08-03T09:12:41;31.90;76.20
27559;DHT22;15002;52.028;5.670;2022-08-03T09:15:21;31.90;77.50
27559;DHT22;15002;52.028;5.670;2022-08-03T09:17:48;32.00;77.00
27559;DHT22;15002;52.028;5.670;2022-08-03T09:20:13;31.90;76.50
27559;DHT22;15002;52.028;5.670;2022-08-03T09:23:05;32.00;77.70
27559;DHT22;15002;52.028;5.670;2022-08-03T09:25:35;32.00;76.70
27559;DHT22;15002;52.028;5.670;2022-08-03T09:30:37;31.90;76.20
27559;DHT22;15002;52.028;5.670;2022-08-03T09:33:08;32.00;77.10
27559;DHT22;15002;52.028;5.670;2022-08-03T09:35:45;31.90;75.60
27559;DHT22;15002;52.028;5.670;2022-08-03T09:40:38;31.80;75.60
27559;DHT22;15002;52.028;5.670;2022-08-03T09:43:04;31.90;77.00
27559;DHT22;15002;52.028;5.670;2022-08-03T09:45:33;31.90;76.60
27559;DHT22;15002;52.028;5.670;2022-08-03T09:48:22;31.90;76.10
27559;DHT22;15002;52.028;5.670;2022-08-03T09:50:59;31.90;76.00
27559;DHT22;15002;52.028;5.670;2022-08-03T09:53:25;31.90;77.20
27559;DHT22;15002;52.028;5.670;2022-08-03T09:55:52;32.00;75.80
27559;DHT22;15002;52.028;5.670;2022-08-03T09:58:20;32.10;74.50
27559;DHT22;15002;52.028;5.670;2022-08-03T10:00:53;32.10;75.10
27559;DHT22;15002;52.028;5.670;2022-08-03T10:03:19;32.20;75.30
27559;DHT22;15002;52.028;5.670;2022-08-03T10:05:44;32.10;75.30
27559;DHT22;15002;52.028;5.670;2022-08-03T10:08:15;32.10;75.40
27559;DHT22;15002;52.028;5.670;2022-08-03T10:10:42;32.30;75.80
27559;DHT22;15002;52.028;5.670;2022-08-03T10:13:12;32.20;74.30
27559;DHT22;15002;52.028;5.670;2022-08-03T10:15:39;32.20;74.00
27559;DHT22;15002;52.028;5.670;2022-08-03T10:18:05;32.20;74.40
27559;DHT22;15002;52.028;5.670;2022-08-03T10:20:36;32.10;74.20
27559;DHT22;15002;52.028;5.670;2022-08-03T10:23:02;32.20;74.20
27559;DHT22;15002;52.028;5.670;2022-08-03T10:25:29;32.30;74.30
27559;DHT22;15002;52.028;5.670;2022-08-03T10:27:56;32.20;74.40
27559;DHT22;15002;52.028;5.670;2022-08-03T10:30:23;32.20;74.50
27559;DHT22;15002;52.028;5.670;2022-08-03T10:32:54;32.00;73.90
27559;DHT22;15002;52.028;5.670;2022-08-03T10:35:24;32.00;74.10
27559;DHT22;15002;52.028;5.670;2022-08-03T10:38:02;32.00;75.20
27559;DHT22;15002;52.028;5.670;2022-08-03T10:40:30;32.20;74.80
27559;DHT22;15002;52.028;5.670;2022-08-03T10:43:02;32.10;74.20
27559;DHT22;15002;52.028;5.670;2022-08-03T10:45:33;32.20;74.00
27559;DHT22;15002;52.028;5.670;2022-08-03T10:48:01;32.30;73.50
27559;DHT22;15002;52.028;5.670;2022-08-03T10:50:27;32.30;73.60
27559;DHT22;15002;52.028;5.670;2022-08-03T10:53:03;31.90;73.30
27559;DHT22;15002;52.028;5.670;2022-08-03T10:55:34;31.80;73.20
27559;DHT22;15002;52.028;5.670;2022-08-03T11:01:04;31.80;74.30
27559;DHT22;15002;52.028;5.670;2022-08-03T11:03:30;31.90;75.30
27559;DHT22;15002;52.028;5.670;2022-08-03T11:06:22;32.10;73.70
27559;DHT22;15002;52.028;5.670;2022-08-03T11:11:42;31.90;73.90
27559;DHT22;15002;52.028;5.670;2022-08-03T11:14:16;32.00;73.70
27559;DHT22;15002;52.028;5.670;2022-08-03T11:19:13;31.70;73.60
27559;DHT22;15002;52.028;5.670;2022-08-03T11:27:20;32.10;72.50
27559;DHT22;15002;52.028;5.670;2022-08-03T11:29:57;32.00;72.90
27559;DHT22;15002;52.028;5.670;2022-08-03T11:51:06;32.10;68.60
27559;DHT22;15002;52.028;5.670;2022-08-03T11:53:32;32.30;69.10
27559;DHT22;15002;52.028;5.670;2022-08-03T11:56:01;32.10;68.50
27559;DHT22;15002;52.028;5.670;2022-08-03T11:58:27;32.20;69.60
27559;DHT22;15002;52.028;5.670;2022-08-03T12:01:05;32.10;70.60
27559;DHT22;15002;52.028;5.670;2022-08-03T12:03:32;32.10;69.80
27559;DHT22;15002;52.028;5.670;2022-08-03T12:05:58;32.20;69.20
27559;DHT22;15002;52.028;5.670;2022-08-03T12:10:53;32.30;69.70
27559;DHT22;15002;52.028;5.670;2022-08-03T12:13:20;32.20;67.00
27559;DHT22;15002;52.028;5.670;2022-08-03T12:15:54;32.10;67.70
27559;DHT22;15002;52.028;5.670;2022-08-03T12:18:21;32.20;67.20
27559;DHT22;15002;52.028;5.670;2022-08-03T12:20:49;32.30;67.70
27559;DHT22;15002;52.028;5.670;2022-08-03T12:23:15;32.30;68.30
27559;DHT22;15002;52.028;5.670;2022-08-03T12:25:43;32.30;67.00
27559;DHT22;15002;52.028;5.670;2022-08-03T12:28:18;32.40;67.80
27559;DHT22;15002;52.028;5.670;2022-08-03T12:30:46;32.50;67.40
27559;DHT22;15002;52.028;5.670;2022-08-03T12:33:17;32.60;67.20
27559;DHT22;15002;52.028;5.670;2022-08-03T12:35:45;32.70;67.20
27559;DHT22;15002;52.028;5.670;2022-08-03T12:38:12;32.50;66.70
27559;DHT22;15002;52.028;5.670;2022-08-03T12:40:38;32.70;66.80
27559;DHT22;15002;52.028;5.670;2022-08-03T12:43:13;32.60;66.50
27559;DHT22;15002;52.028;5.670;2022-08-03T12:45:39;32.60;66.40
27559;DHT22;15002;52.028;5.670;2022-08-03T12:48:08;32.60;66.20
27559;DHT22;15002;52.028;5.670;2022-08-03T12:50:37;32.70;65.60
27559;DHT22;15002;52.028;5.670;2022-08-03T12:53:07;32.60;67.10
27559;DHT22;15002;52.028;5.670;2022-08-03T12:55:33;32.80;66.70
27559;DHT22;15002;52.028;5.670;2022-08-03T12:58:00;32.80;65.80
27559;DHT22;15002;52.028;5.670;2022-08-03T13:00:26;32.70;65.90
27559;DHT22;15002;52.028;5.670;2022-08-03T13:05:24;32.70;66.60
27559;DHT22;15002;52.028;5.670;2022-08-03T13:07:49;32.80;66.80
27559;DHT22;15002;52.028;5.670;2022-08-03T13:10:30;32.80;67.10
27559;DHT22;15002;52.028;5.670;2022-08-03T13:12:57;32.70;67.20
27559;DHT22;15002;52.028;5.670;2022-08-03T13:15:27;32.70;68.20
27559;DHT22;15002;52.028;5.670;2022-08-03T13:17:54;32.80;68.30
27559;DHT22;15002;52.028;5.670;2022-08-03T13:20:21;32.90;68.20
27559;DHT22;15002;52.028;5.670;2022-08-03T13:22:47;32.60;68.00
27559;DHT22;15002;52.028;5.670;2022-08-03T13:25:13;32.60;68.90
27559;DHT22;15002;52.028;5.670;2022-08-03T13:27:39;32.70;69.60
27559;DHT22;15002;52.028;5.670;2022-08-03T13:30:06;32.80;69.00
27559;DHT22;15002;52.028;5.670;2022-08-03T13:32:33;32.70;69.60
27559;DHT22;15002;52.028;5.670;2022-08-03T13:34:59;33.00;69.20
27559;DHT22;15002;52.028;5.670;2022-08-03T13:37:27;32.90;68.60
27559;DHT22;15002;52.028;5.670;2022-08-03T13:39:53;32.70;69.30
27559;DHT22;15002;52.028;5.670;2022-08-03T13:42:18;32.80;69.90
27559;DHT22;15002;52.028;5.670;2022-08-03T13:44:44;32.80;69.90
27559;DHT22;15002;52.028;5.670;2022-08-03T13:47:09;32.70;70.80
27559;DHT22;15002;52.028;5.670;2022-08-03T13:49:35;32.70;71.10
27559;DHT22;15002;52.028;5.670;2022-08-03T13:52:01;32.60;70.20
27559;DHT22;15002;52.028;5.670;2022-08-03T13:54:26;32.70;70.90
27559;DHT22;15002;52.028;5.670;2022-08-03T13:56:53;32.80;70.30
27559;DHT22;15002;52.028;5.670;2022-08-03T13:59:22;32.80;70.80
27559;DHT22;15002;52.028;5.670;2022-08-03T14:01:49;32.60;71.30
27559;DHT22;15002;52.028;5.670;2022-08-03T14:04:16;32.80;71.40
27559;DHT22;15002;52.028;5.670;2022-08-03T14:06:42;32.70;70.90
27559;DHT22;15002;52.028;5.670;2022-08-03T14:09:13;32.70;71.30
27559;DHT22;15002;52.028;5.670;2022-08-03T14:11:40;32.60;71.30
27559;DHT22;15002;52.028;5.670;2022-08-03T14:14:05;32.50;71.90
27559;DHT22;15002;52.028;5.670;2022-08-03T14:16:31;32.30;72.60
27559;DHT22;15002;52.028;5.670;2022-08-03T14:18:57;32.50;72.70
27559;DHT22;15002;52.028;5.670;2022-08-03T14:21:22;32.50;72.60
27559;DHT22;15002;52.028;5.670;2022-08-03T14:23:48;32.60;71.90
27559;DHT22;15002;52.028;5.670;2022-08-03T14:26:14;32.70;72.00
27559;DHT22;15002;52.028;5.670;2022-08-03T14:28:40;32.60;72.70
27559;DHT22;15002;52.028;5.670;2022-08-03T14:31:06;32.80;71.70
27559;DHT22;15002;52.028;5.670;2022-08-03T14:33:32;32.90;71.40
27559;DHT22;15002;52.028;5.670;2022-08-03T14:35:57;32.90;71.60
27559;DHT22;15002;52.028;5.670;2022-08-03T14:38:23;32.90;71.80
27559;DHT22;15002;52.028;5.670;2022-08-03T14:40:49;33.00;71.40
27559;DHT22;15002;52.028;5.670;2022-08-03T14:43:15;32.90;72.10
27559;DHT22;15002;52.028;5.670;2022-08-03T14:45:48;32.40;72.80
27559;DHT22;15002;52.028;5.670;2022-08-03T14:48:17;32.30;72.80
27559;DHT22;15002;52.028;5.670;2022-08-03T14:50:42;32.40;72.90
27559;DHT22;15002;52.028;5.670;2022-08-03T14:53:08;32.30;73.10
27559;DHT22;15002;52.028;5.670;2022-08-03T14:55:34;32.50;73.30
27559;DHT22;15002;52.028;5.670;2022-08-03T14:57:59;32.80;72.50
27559;DHT22;15002;52.028;5.670;2022-08-03T15:00:30;32.70;72.50
27559;DHT22;15002;52.028;5.670;2022-08-03T15:02:57;32.60;72.30
27559;DHT22;15002;52.028;5.670;2022-08-03T15:05:23;32.30;72.80
27559;DHT22;15002;52.028;5.670;2022-08-03T15:07:49;32.40;73.30
27559;DHT22;15002;52.028;5.670;2022-08-03T15:10:14;32.30;73.40
27559;DHT22;15002;52.028;5.670;2022-08-03T15:12:40;32.50;73.20
27559;DHT22;15002;52.028;5.670;2022-08-03T15:15:06;32.50;73.10
27559;DHT22;15002;52.028;5.670;2022-08-03T15:17:32;32.50;72.60
27559;DHT22;15002;52.028;5.670;2022-08-03T15:19:57;32.50;73.30
27559;DHT22;15002;52.028;5.670;2022-08-03T15:22:23;32.50;73.00
27559;DHT22;15002;52.028;5.670;2022-08-03T15:24:49;32.50;73.00
27559;DHT22;15002;52.028;5.670;2022-08-03T15:27:14;32.30;72.50
27559;DHT22;15002;52.028;5.670;2022-08-03T15:29:40;32.20;73.20
27559;DHT22;15002;52.028;5.670;2022-08-03T15:32:06;32.50;72.80
27559;DHT22;15002;52.028;5.670;2022-08-03T15:34:31;32.40;72.20
27559;DHT22;15002;52.028;5.670;2022-08-03T15:36:57;32.30;71.90
27559;DHT22;15002;52.028;5.670;2022-08-03T15:39:23;32.30;73.50
27559;DHT22;15002;52.028;5.670;2022-08-03T15:41:49;32.10;72.20
27559;DHT22;15002;52.028;5.670;2022-08-03T15:44:18;32.20;72.80
27559;DHT22;15002;52.028;5.670;2022-08-03T15:46:44;32.30;72.60
27559;DHT22;15002;52.028;5.670;2022-08-03T15:49:10;32.10;72.40
27559;DHT22;15002;52.028;5.670;2022-08-03T15:51:36;32.10;73.10
27559;DHT22;15002;52.028;5.670;2022-08-03T15:54:03;32.30;72.80
27559;DHT22;15002;52.028;5.670;2022-08-03T15:56:29;32.30;72.70
27559;DHT22;15002;52.028;5.670;2022-08-03T15:58:55;32.30;72.80
27559;DHT22;15002;52.028;5.670;2022-08-03T16:01:23;32.20;73.10
27559;DHT22;15002;52.028;5.670;2022-08-03T16:03:50;32.20;73.00
27559;DHT22;15002;52.028;5.670;2022-08-03T16:06:16;32.50;72.00
27559;DHT22;15002;52.028;5.670;2022-08-03T16:08:41;32.40;72.30
27559;DHT22;15002;52.028;5.670;2022-08-03T16:11:07;32.50;72.00
27559;DHT22;15002;52.028;5.670;2022-08-03T16:13:33;32.30;71.70
27559;DHT22;15002;52.028;5.670;2022-08-03T16:15:58;32.20;72.70
27559;DHT22;15002;52.028;5.670;2022-08-03T16:18:24;32.20;72.90
27559;DHT22;15002;52.028;5.670;2022-08-03T16:20:50;32.20;72.60
27559;DHT22;15002;52.028;5.670;2022-08-03T16:23:16;32.10;72.80
27559;DHT22;15002;52.028;5.670;2022-08-03T16:25:43;32.10;72.80
27559;DHT22;15002;52.028;5.670;2022-08-03T16:28:10;32.20;72.50